sensor_id;sensor_type;location;lat;lon;timestamp;temperature;humidity
5675;DHT22;2860;54.284;10.158;2023-05-01T00:00:54;4.00;99.90
5675;DHT22;2860;54.284;10.158;2023-05-01T00:03:19;3.90;99.90
5675;DHT22;2860;54.284;10.158;2023-05-01T00:05:45;3.90;99.90
5675;DHT22;2860;54.284;10.158;2023-05-01T00:08:11;3.90;99.90
5675;DHT22;2860;54.284;10.158;2023-05-01T00:10:38;3.90;99.90
5675;DHT22;2860;54.284;10.158;2023-05-01T00:13:04;3.80;99.90
5675;DHT22;2860;54.284;10.158;2023-05-01T00:15:30;3.90;99.90
5675;DHT22;2860;54.284;10.158;2023-05-01T00:17:56;3.80;99.90
5675;DHT22;2860;54.284;10.158;2023-05-01T00:20:25;3.80;99.90
5675;DHT22;2860;54.284;10.158;2023-05-01T00:22:52;3.80;99.90
5675;DHT22;2860;54.284;10.158;2023-05-01T00:25:17;3.80;99.90
5675;DHT22;2860;54.284;10.158;2023-05-01T00:27:43;3.80;99.90
5675;DHT22;2860;54.284;10.158;2023-05-01T00:30:09;3.70;99.90
5675;DHT22;2860;54.284;10.158;2023-05-01T00:32:34;3.80;99.90
5675;DHT22;2860;54.284;10.158;2023-05-01T00:35:00;3.80;99.90
5675;DHT22;2860;54.284;10.158;2023-05-01T00:37:25;3.70;99.90
5675;DHT22;2860;54.284;10.158;2023-05-01T00:39:51;3.70;99.90
5675;DHT22;2860;54.284;10.158;2023-05-01T00:42:17;3.70;99.90
5675;DHT22;2860;54.284;10.158;2023-05-01T00:44:42;3.70;99.90
5675;DHT22;2860;54.284;10.158;2023-05-01T00:47:08;3.70;99.90
5675;DHT22;2860;54.284;10.158;2023-05-01T00:49:33;3.60;99.90
5675;DHT22;2860;54.284;10.158;2023-05-01T00:51:59;3.60;99.90
5675;DHT22;2860;54.284;10.158;2023-05-01T00:54:24;3.60;99.90
5675;DHT22;2860;54.284;10.158;2023-05-01T00:56:52;3.70;99.90
5675;DHT22;2860;54.284;10.158;2023-05-01T00:59:18;3.60;99.90
5675;DHT22;2860;54.284;10.158;2023-05-01T01:01:44;3.60;99.90
5675;DHT22;2860;54.284;10.158;2023-05-01T01:04:09;3.60;99.90
5675;DHT22;2860;54.284;10.158;2023-05-01T01:06:57;3.60;99.90
5675;DHT22;2860;54.284;10.158;2023-05-01T01:09:51;3.60;99.90
5675;DHT22;2860;54.284;10.158;2023-05-01T01:12:44;3.50;99.90
5675;DHT22;2860;54.284;10.158;2023-05-01T01:15:44;3.50;99.90
5675;DHT22;2860;54.284;10.158;2023-05-01T01:18:23;3.50;99.90
5675;DHT22;2860;54.284;10.158;2023-05-01T01:21:11;3.50;99.90
5675;DHT22;2860;54.284;10.158;2023-05-01T01:24:05;3.50;99.90
5675;DHT22;2860;54.284;10.158;2023-05-01T01:29:39;3.50;99.90
5675;DHT22;2860;54.284;10.158;2023-05-01T01:32:53;3.50;99.90
5675;DHT22;2860;54.284;10.158;2023-05-01T01:35:18;3.40;99.90
5675;DHT22;2860;54.284;10.158;2023-05-01T01:37:47;3.40;99.90
5675;DHT22;2860;54.284;10.158;2023-05-01T01:40:18;3.40;99.90
5675;DHT22;2860;54.284;10.158;2023-05-01T01:42:52;3.40;99.90
5675;DHT22;2860;54.284;10.158;2023-05-01T01:45:21;3.40;99.90
5675;DHT22;2860;54.284;10.158;2023-05-01T01:47:49;3.40;99.90
5675;DHT22;2860;54.284;10.158;2023-05-01T01:50:17;3.30;99.90
5675;DHT22;2860;54.284;10.158;2023-05-01T01:52:48;3.30;99.90
5675;DHT22;2860;54.284;10.158;2023-05-01T01:55:14;3.30;99.90
5675;DHT22;2860;54.284;10.158;2023-05-01T01:57:43;3.30;99.90
5675;DHT22;2860;54.284;10.158;2023-05-01T02:00:11;3.30;99.90
5675;DHT22;2860;54.284;10.158;2023-05-01T02:02:38;3.30;99.90
5675;DHT22;2860;54.284;10.158;2023-05-01T02:05:06;3.20;99.90
5675;DHT22;2860;54.284;10.158;2023-05-01T02:07:37;3.20;99.90
5675;DHT22;2860;54.284;10.158;2023-05-01T02:10:05;3.20;99.90
5675;DHT22;2860;54.284;10.158;2023-05-01T02:12:33;3.20;99.90
5675;DHT22;2860;54.284;10.158;2023-05-01T02:14:59;3.20;99.90
5675;DHT22;2860;54.284;10.158;2023-05-01T02:17:26;3.10;99.90
5675;DHT22;2860;54.284;10.158;2023-05-01T02:19:53;3.10;99.90
5675;DHT22;2860;54.284;10.158;2023-05-01T02:22:20;3.10;99.90
5675;DHT22;2860;54.284;10.158;2023-05-01T02:24:47;3.10;99.90
5675;DHT22;2860;54.284;10.158;2023-05-01T02:27:20;3.10;99.90
5675;DHT22;2860;54.284;10.158;2023-05-01T02:29:47;3.10;99.90
5675;DHT22;2860;54.284;10.158;2023-05-01T02:32:13;3.10;99.90
5675;DHT22;2860;54.284;10.158;2023-05-01T02:34:38;3.10;99.90
5675;DHT22;2860;54.284;10.158;2023-05-01T02:37:05;3.10;99.90
5675;DHT22;2860;54.284;10.158;2023-05-01T02:39:33;3.10;99.90
5675;DHT22;2860;54.284;10.158;2023-05-01T02:42:00;3.10;99.90
5675;DHT22;2860;54.284;10.158;2023-05-01T02:44:28;3.10;99.90
5675;DHT22;2860;54.284;10.158;2023-05-01T02:46:57;3.00;99.90
5675;DHT22;2860;54.284;10.158;2023-05-01T02:49:24;3.10;99.90
5675;DHT22;2860;54.284;10.158;2023-05-01T02:51:52;3.00;99.90
5675;DHT22;2860;54.284;10.158;2023-05-01T02:54:18;3.00;99.90
5675;DHT22;2860;54.284;10.158;2023-05-01T02:56:44;3.00;99.90
5675;DHT22;2860;54.284;10.158;2023-05-01T02:59:09;3.00;99.90
5675;DHT22;2860;54.284;10.158;2023-05-01T03:01:35;3.00;99.90
5675;DHT22;2860;54.284;10.158;2023-05-01T03:04:01;3.00;99.90
5675;DHT22;2860;54.284;10.158;2023-05-01T03:06:26;3.00;99.90
5675;DHT22;2860;54.284;10.158;2023-05-01T03:08:53;3.00;99.90
5675;DHT22;2860;54.284;10.158;2023-05-01T03:11:19;2.90;99.90
5675;DHT22;2860;54.284;10.158;2023-05-01T03:13:45;2.90;99.90
5675;DHT22;2860;54.284;10.158;2023-05-01T03:16:11;2.80;99.90
5675;DHT22;2860;54.284;10.158;2023-05-01T03:18:37;2.80;99.90
5675;DHT22;2860;54.284;10.158;2023-05-01T03:21:03;2.80;99.90
5675;DHT22;2860;54.284;10.158;2023-05-01T03:23:28;2.80;99.90
5675;DHT22;2860;54.284;10.158;2023-05-01T03:25:54;2.80;99.90
5675;DHT22;2860;54.284;10.158;2023-05-01T03:28:19;2.80;99.90
5675;DHT22;2860;54.284;10.158;2023-05-01T03:30:49;2.80;99.90
5675;DHT22;2860;54.284;10.158;2023-05-01T03:33:14;2.80;99.90
5675;DHT22;2860;54.284;10.158;2023-05-01T03:35:40;2.80;99.90
5675;DHT22;2860;54.284;10.158;2023-05-01T03:38:06;2.70;99.90
5675;DHT22;2860;54.284;10.158;2023-05-01T03:40:31;2.70;99.90
5675;DHT22;2860;54.284;10.158;2023-05-01T03:42:57;2.80;99.90
5675;DHT22;2860;54.284;10.158;2023-05-01T03:45:22;2.70;99.90
5675;DHT22;2860;54.284;10.158;2023-05-01T03:47:48;2.70;99.90
5675;DHT22;2860;54.284;10.158;2023-05-01T03:50:14;2.70;99.90
5675;DHT22;2860;54.284;10.158;2023-05-01T03:52:40;2.70;99.90
5675;DHT22;2860;54.284;10.158;2023-05-01T03:55:06;2.70;99.90
5675;DHT22;2860;54.284;10.158;2023-05-01T03:57:32;2.70;99.90
5675;DHT22;2860;54.284;10.158;2023-05-01T03:59:58;2.70;99.90
5675;DHT22;2860;54.284;10.158;2023-05-01T04:02:23;2.80;99.90
5675;DHT22;2860;54.284;10.158;2023-05-01T04:04:49;2.80;99.90
5675;DHT22;2860;54.284;10.158;2023-05-01T04:07:14;2.80;99.90
5675;DHT22;2860;54.284;10.158;2023-05-01T04:09:40;2.90;99.90
5675;DHT22;2860;54.284;10.158;2023-05-01T04:12:06;2.90;99.90
5675;DHT22;2860;54.284;10.158;2023-05-01T04:14:31;2.90;99.90
5675;DHT22;2860;54.284;10.158;2023-05-01T04:16:57;3.00;99.90
5675;DHT22;2860;54.284;10.158;2023-05-01T04:19:22;3.00;99.90
5675;DHT22;2860;54.284;10.158;2023-05-01T04:21:48;3.10;99.90
5675;DHT22;2860;54.284;10.158;2023-05-01T04:24:13;3.20;99.90
5675;DHT22;2860;54.284;10.158;2023-05-01T04:26:41;3.20;99.90
5675;DHT22;2860;54.284;10.158;2023-05-01T04:29:07;3.30;99.90
5675;DHT22;2860;54.284;10.158;2023-05-01T04:31:33;3.40;99.90
5675;DHT22;2860;54.284;10.158;2023-05-01T04:33:59;3.50;99.90
5675;DHT22;2860;54.284;10.158;2023-05-01T04:36:25;3.60;99.90
5675;DHT22;2860;54.284;10.158;2023-05-01T04:38:50;3.70;99.90
5675;DHT22;2860;54.284;10.158;2023-05-01T04:41:16;3.80;99.90
5675;DHT22;2860;54.284;10.158;2023-05-01T04:43:41;3.90;99.90
5675;DHT22;2860;54.284;10.158;2023-05-01T04:46:06;4.00;99.90
5675;DHT22;2860;54.284;10.158;2023-05-01T04:48:32;4.20;99.90
5675;DHT22;2860;54.284;10.158;2023-05-01T04:50:57;4.30;99.90
5675;DHT22;2860;54.284;10.158;2023-05-01T04:53:23;4.40;99.90
5675;DHT22;2860;54.284;10.158;2023-05-01T04:55:49;4.60;99.90
5675;DHT22;2860;54.284;10.158;2023-05-01T04:58:15;4.70;99.90
5675;DHT22;2860;54.284;10.158;2023-05-01T05:00:40;4.90;99.90
5675;DHT22;2860;54.284;10.158;2023-05-01T05:03:05;5.00;99.90
5675;DHT22;2860;54.284;10.158;2023-05-01T05:05:32;5.20;99.90
5675;DHT22;2860;54.284;10.158;2023-05-01T05:07:58;5.30;99.90
5675;DHT22;2860;54.284;10.158;2023-05-01T05:10:24;5.50;99.90
5675;DHT22;2860;54.284;10.158;2023-05-01T05:12:49;5.80;99.90
5675;DHT22;2860;54.284;10.158;2023-05-01T05:15:15;6.20;99.90
5675;DHT22;2860;54.284;10.158;2023-05-01T05:17:41;6.60;99.90
5675;DHT22;2860;54.284;10.158;2023-05-01T05:20:07;7.10;99.90
5675;DHT22;2860;54.284;10.158;2023-05-01T05:22:35;7.50;99.90
5675;DHT22;2860;54.284;10.158;2023-05-01T05:25:01;8.00;99.90
5675;DHT22;2860;54.284;10.158;2023-05-01T05:27:28;8.50;99.90
5675;DHT22;2860;54.284;10.158;2023-05-01T05:29:55;8.90;99.90
5675;DHT22;2860;54.284;10.158;2023-05-01T05:32:20;9.20;99.90
5675;DHT22;2860;54.284;10.158;2023-05-01T05:34:46;9.50;99.90
5675;DHT22;2860;54.284;10.158;2023-05-01T05:37:12;9.90;99.90
5675;DHT22;2860;54.284;10.158;2023-05-01T05:39:40;10.20;99.90
5675;DHT22;2860;54.284;10.158;2023-05-01T05:42:06;10.40;99.90
5675;DHT22;2860;54.284;10.158;2023-05-01T05:44:31;10.60;99.90
5675;DHT22;2860;54.284;10.158;2023-05-01T05:47:00;10.80;99.90
5675;DHT22;2860;54.284;10.158;2023-05-01T05:49:25;10.90;99.90
5675;DHT22;2860;54.284;10.158;2023-05-01T05:51:51;11.10;99.90
5675;DHT22;2860;54.284;10.158;2023-05-01T05:54:16;11.30;99.90
5675;DHT22;2860;54.284;10.158;2023-05-01T05:56:42;11.40;99.90
5675;DHT22;2860;54.284;10.158;2023-05-01T05:59:07;11.30;99.90
5675;DHT22;2860;54.284;10.158;2023-05-01T06:01:33;11.30;99.90
5675;DHT22;2860;54.284;10.158;2023-05-01T06:03:58;11.20;99.90
5675;DHT22;2860;54.284;10.158;2023-05-01T06:06:24;11.20;99.90
5675;DHT22;2860;54.284;10.158;2023-05-01T06:08:50;11.20;99.90
5675;DHT22;2860;54.284;10.158;2023-05-01T06:11:16;11.30;99.90
5675;DHT22;2860;54.284;10.158;2023-05-01T06:13:41;11.20;99.90
5675;DHT22;2860;54.284;10.158;2023-05-01T06:16:07;11.20;99.90
5675;DHT22;2860;54.284;10.158;2023-05-01T06:18:32;11.20;99.90
5675;DHT22;2860;54.284;10.158;2023-05-01T06:20:58;11.20;99.90
5675;DHT22;2860;54.284;10.158;2023-05-01T06:23:24;11.10;99.90
5675;DHT22;2860;54.284;10.158;2023-05-01T06:25:50;11.00;99.90
5675;DHT22;2860;54.284;10.158;2023-05-01T06:28:15;11.00;99.90
5675;DHT22;2860;54.284;10.158;2023-05-01T06:30:41;11.00;99.90
5675;DHT22;2860;54.284;10.158;2023-05-01T06:33:06;11.20;99.90
5675;DHT22;2860;54.284;10.158;2023-05-01T06:35:32;11.10;99.90
5675;DHT22;2860;54.284;10.158;2023-05-01T06:37:57;11.10;99.90
5675;DHT22;2860;54.284;10.158;2023-05-01T06:40:24;11.10;99.90
5675;DHT22;2860;54.284;10.158;2023-05-01T06:42:50;11.10;99.90
5675;DHT22;2860;54.284;10.158;2023-05-01T06:45:15;11.10;99.90
5675;DHT22;2860;54.284;10.158;2023-05-01T06:47:41;11.30;99.90
5675;DHT22;2860;54.284;10.158;2023-05-01T06:50:07;11.40;99.90
5675;DHT22;2860;54.284;10.158;2023-05-01T06:52:32;11.50;99.90
5675;DHT22;2860;54.284;10.158;2023-05-01T06:54:58;11.70;99.90
5675;DHT22;2860;54.284;10.158;2023-05-01T06:57:24;11.90;99.90
5675;DHT22;2860;54.284;10.158;2023-05-01T06:59:49;12.00;99.90
5675;DHT22;2860;54.284;10.158;2023-05-01T07:02:15;12.00;99.90
5675;DHT22;2860;54.284;10.158;2023-05-01T07:04:41;12.10;99.90
5675;DHT22;2860;54.284;10.158;2023-05-01T07:07:08;12.10;99.90
5675;DHT22;2860;54.284;10.158;2023-05-01T07:09:34;12.20;99.90
5675;DHT22;2860;54.284;10.158;2023-05-01T07:12:00;12.20;99.90
5675;DHT22;2860;54.284;10.158;2023-05-01T07:14:26;12.20;99.90
5675;DHT22;2860;54.284;10.158;2023-05-01T07:16:51;12.30;99.90
5675;DHT22;2860;54.284;10.158;2023-05-01T07:19:16;12.30;99.90
5675;DHT22;2860;54.284;10.158;2023-05-01T07:21:42;12.40;99.90
5675;DHT22;2860;54.284;10.158;2023-05-01T07:24:08;12.50;99.90
5675;DHT22;2860;54.284;10.158;2023-05-01T07:26:34;12.60;99.90
5675;DHT22;2860;54.284;10.158;2023-05-01T07:28:59;12.70;99.90
5675;DHT22;2860;54.284;10.158;2023-05-01T07:31:25;12.80;99.90
5675;DHT22;2860;54.284;10.158;2023-05-01T07:33:50;12.90;99.90
5675;DHT22;2860;54.284;10.158;2023-05-01T07:36:17;13.00;99.90
5675;DHT22;2860;54.284;10.158;2023-05-01T07:38:44;13.20;99.90
5675;DHT22;2860;54.284;10.158;2023-05-01T07:41:10;13.30;99.90
5675;DHT22;2860;54.284;10.158;2023-05-01T07:43:35;13.50;99.90
5675;DHT22;2860;54.284;10.158;2023-05-01T07:46:01;13.60;99.90
5675;DHT22;2860;54.284;10.158;2023-05-01T07:48:27;13.90;99.90
5675;DHT22;2860;54.284;10.158;2023-05-01T07:50:53;14.10;99.90
5675;DHT22;2860;54.284;10.158;2023-05-01T07:53:19;14.20;99.90
5675;DHT22;2860;54.284;10.158;2023-05-01T07:55:46;14.40;99.90
5675;DHT22;2860;54.284;10.158;2023-05-01T07:58:12;14.50;99.90
5675;DHT22;2860;54.284;10.158;2023-05-01T08:00:37;14.60;99.90
5675;DHT22;2860;54.284;10.158;2023-05-01T08:03:03;14.60;99.90
5675;DHT22;2860;54.284;10.158;2023-05-01T08:05:28;14.70;99.90
5675;DHT22;2860;54.284;10.158;2023-05-01T08:07:55;14.80;99.90
5675;DHT22;2860;54.284;10.158;2023-05-01T08:10:21;15.00;99.90
5675;DHT22;2860;54.284;10.158;2023-05-01T08:12:46;15.20;99.90
5675;DHT22;2860;54.284;10.158;2023-05-01T08:15:12;15.20;99.90
5675;DHT22;2860;54.284;10.158;2023-05-01T08:17:37;15.30;99.90
5675;DHT22;2860;54.284;10.158;2023-05-01T08:20:03;15.20;99.90
5675;DHT22;2860;54.284;10.158;2023-05-01T08:22:29;15.20;99.90
5675;DHT22;2860;54.284;10.158;2023-05-01T08:24:55;15.40;99.90
5675;DHT22;2860;54.284;10.158;2023-05-01T08:27:21;15.60;99.90
5675;DHT22;2860;54.284;10.158;2023-05-01T08:29:46;15.80;99.90
5675;DHT22;2860;54.284;10.158;2023-05-01T08:32:13;16.00;99.90
5675;DHT22;2860;54.284;10.158;2023-05-01T08:34:39;16.10;99.90
5675;DHT22;2860;54.284;10.158;2023-05-01T08:37:04;16.10;99.90
5675;DHT22;2860;54.284;10.158;2023-05-01T08:39:30;16.10;99.90
5675;DHT22;2860;54.284;10.158;2023-05-01T08:41:56;16.30;99.90
5675;DHT22;2860;54.284;10.158;2023-05-01T08:44:24;16.40;99.90
5675;DHT22;2860;54.284;10.158;2023-05-01T08:47:12;16.60;99.90
5675;DHT22;2860;54.284;10.158;2023-05-01T08:49:40;16.50;99.90
5675;DHT22;2860;54.284;10.158;2023-05-01T08:52:07;16.70;99.90
5675;DHT22;2860;54.284;10.158;2023-05-01T08:54:34;16.80;99.90
5675;DHT22;2860;54.284;10.158;2023-05-01T08:57:02;17.00;99.90
5675;DHT22;2860;54.284;10.158;2023-05-01T08:59:33;17.10;99.90
5675;DHT22;2860;54.284;10.158;2023-05-01T09:02:01;17.20;99.90
5675;DHT22;2860;54.284;10.158;2023-05-01T09:04:31;17.20;99.90
5675;DHT22;2860;54.284;10.158;2023-05-01T09:06:58;17.40;99.90
5675;DHT22;2860;54.284;10.158;2023-05-01T09:09:27;17.50;99.90
5675;DHT22;2860;54.284;10.158;2023-05-01T09:12:23;17.50;99.90
5675;DHT22;2860;54.284;10.158;2023-05-01T09:14:53;17.60;99.90
5675;DHT22;2860;54.284;10.158;2023-05-01T09:17:21;17.70;99.90
5675;DHT22;2860;54.284;10.158;2023-05-01T09:19:47;17.90;99.90
5675;DHT22;2860;54.284;10.158;2023-05-01T09:22:14;18.20;99.90
5675;DHT22;2860;54.284;10.158;2023-05-01T09:24:40;18.20;99.90
5675;DHT22;2860;54.284;10.158;2023-05-01T09:27:05;18.20;99.90
5675;DHT22;2860;54.284;10.158;2023-05-01T09:29:38;18.20;99.90
5675;DHT22;2860;54.284;10.158;2023-05-01T09:32:17;18.20;99.90
5675;DHT22;2860;54.284;10.158;2023-05-01T09:34:45;18.30;99.90
5675;DHT22;2860;54.284;10.158;2023-05-01T09:37:23;18.50;99.90
5675;DHT22;2860;54.284;10.158;2023-05-01T09:40:12;18.60;99.90
5675;DHT22;2860;54.284;10.158;2023-05-01T09:42:40;18.60;99.90
5675;DHT22;2860;54.284;10.158;2023-05-01T09:45:11;18.40;99.90
5675;DHT22;2860;54.284;10.158;2023-05-01T09:47:41;18.10;99.90
5675;DHT22;2860;54.284;10.158;2023-05-01T09:50:08;18.10;99.90
5675;DHT22;2860;54.284;10.158;2023-05-01T09:52:34;18.20;99.90
5675;DHT22;2860;54.284;10.158;2023-05-01T09:55:13;18.10;99.90
5675;DHT22;2860;54.284;10.158;2023-05-01T09:57:39;18.00;99.90
5675;DHT22;2860;54.284;10.158;2023-05-01T10:00:07;18.20;99.90
5675;DHT22;2860;54.284;10.158;2023-05-01T10:02:34;18.20;99.90
5675;DHT22;2860;54.284;10.158;2023-05-01T10:05:01;18.40;99.90
5675;DHT22;2860;54.284;10.158;2023-05-01T10:07:27;18.30;99.90
5675;DHT22;2860;54.284;10.158;2023-05-01T10:09:53;18.50;99.90
5675;DHT22;2860;54.284;10.158;2023-05-01T10:12:28;18.80;99.90
5675;DHT22;2860;54.284;10.158;2023-05-01T10:14:56;19.10;99.90
5675;DHT22;2860;54.284;10.158;2023-05-01T10:17:22;19.40;99.90
5675;DHT22;2860;54.284;10.158;2023-05-01T10:19:48;19.40;99.90
5675;DHT22;2860;54.284;10.158;2023-05-01T10:22:15;19.40;99.90
5675;DHT22;2860;54.284;10.158;2023-05-01T10:24:42;19.60;99.90
5675;DHT22;2860;54.284;10.158;2023-05-01T10:27:08;19.80;99.90
5675;DHT22;2860;54.284;10.158;2023-05-01T10:29:35;19.80;99.90
5675;DHT22;2860;54.284;10.158;2023-05-01T10:32:04;19.70;99.90
5675;DHT22;2860;54.284;10.158;2023-05-01T10:34:41;20.00;99.90
5675;DHT22;2860;54.284;10.158;2023-05-01T10:37:16;20.00;99.90
5675;DHT22;2860;54.284;10.158;2023-05-01T10:39:43;20.00;99.90
5675;DHT22;2860;54.284;10.158;2023-05-01T10:42:09;20.10;99.90
5675;DHT22;2860;54.284;10.158;2023-05-01T10:44:38;19.90;99.90
5675;DHT22;2860;54.284;10.158;2023-05-01T10:53:14;20.30;99.90
5675;DHT22;2860;54.284;10.158;2023-05-01T10:55:42;20.60;99.90
5675;DHT22;2860;54.284;10.158;2023-05-01T10:58:09;20.70;99.90
5675;DHT22;2860;54.284;10.158;2023-05-01T11:00:35;20.60;99.90
5675;DHT22;2860;54.284;10.158;2023-05-01T11:08:31;20.30;99.90
5675;DHT22;2860;54.284;10.158;2023-05-01T11:10:56;20.60;99.90
5675;DHT22;2860;54.284;10.158;2023-05-01T11:19:03;20.60;99.90
5675;DHT22;2860;54.284;10.158;2023-05-01T11:21:29;20.70;99.90
5675;DHT22;2860;54.284;10.158;2023-05-01T11:24:01;20.70;99.90
5675;DHT22;2860;54.284;10.158;2023-05-01T11:26:27;20.70;99.90
5675;DHT22;2860;54.284;10.158;2023-05-01T11:28:57;20.30;99.90
5675;DHT22;2860;54.284;10.158;2023-05-01T11:31:24;20.10;99.90
5675;DHT22;2860;54.284;10.158;2023-05-01T11:33:51;20.00;99.90
5675;DHT22;2860;54.284;10.158;2023-05-01T11:36:18;20.30;99.90
5675;DHT22;2860;54.284;10.158;2023-05-01T11:38:50;20.50;99.90
5675;DHT22;2860;54.284;10.158;2023-05-01T11:41:19;20.80;99.90
5675;DHT22;2860;54.284;10.158;2023-05-01T11:43:57;21.00;99.90
5675;DHT22;2860;54.284;10.158;2023-05-01T11:46:27;21.20;99.90
5675;DHT22;2860;54.284;10.158;2023-05-01T11:48:54;21.40;99.90
5675;DHT22;2860;54.284;10.158;2023-05-01T11:51:20;21.50;99.90
5675;DHT22;2860;54.284;10.158;2023-05-01T11:54:08;21.60;99.90
5675;DHT22;2860;54.284;10.158;2023-05-01T11:56:35;21.60;99.90
5675;DHT22;2860;54.284;10.158;2023-05-01T11:59:12;21.60;99.90
5675;DHT22;2860;54.284;10.158;2023-05-01T12:01:41;21.50;99.90
5675;DHT22;2860;54.284;10.158;2023-05-01T12:04:09;21.40;99.90
5675;DHT22;2860;54.284;10.158;2023-05-01T12:06:36;21.40;99.90
5675;DHT22;2860;54.284;10.158;2023-05-01T12:09:15;21.30;99.90
5675;DHT22;2860;54.284;10.158;2023-05-01T12:11:46;21.10;99.90
5675;DHT22;2860;54.284;10.158;2023-05-01T12:14:13;20.90;99.90
5675;DHT22;2860;54.284;10.158;2023-05-01T12:16:40;20.80;99.90
5675;DHT22;2860;54.284;10.158;2023-05-01T12:19:06;20.70;99.90
5675;DHT22;2860;54.284;10.158;2023-05-01T12:21:32;20.70;99.90
5675;DHT22;2860;54.284;10.158;2023-05-01T12:24:11;20.60;99.90
5675;DHT22;2860;54.284;10.158;2023-05-01T12:26:40;20.80;99.90
5675;DHT22;2860;54.284;10.158;2023-05-01T12:29:07;21.10;99.90
5675;DHT22;2860;54.284;10.158;2023-05-01T12:31:34;20.90;99.90
5675;DHT22;2860;54.284;10.158;2023-05-01T12:34:06;20.90;99.90
5675;DHT22;2860;54.284;10.158;2023-05-01T12:36:34;20.90;99.90
5675;DHT22;2860;54.284;10.158;2023-05-01T12:39:10;20.90;99.90
5675;DHT22;2860;54.284;10.158;2023-05-01T12:41:42;21.10;99.90
5675;DHT22;2860;54.284;10.158;2023-05-01T12:46:45;21.20;99.90
5675;DHT22;2860;54.284;10.158;2023-05-01T12:49:17;21.10;99.90
5675;DHT22;2860;54.284;10.158;2023-05-01T12:51:54;21.20;99.90
5675;DHT22;2860;54.284;10.158;2023-05-01T12:54:34;20.90;99.30
5675;DHT22;2860;54.284;10.158;2023-05-01T12:57:09;20.80;99.90
5675;DHT22;2860;54.284;10.158;2023-05-01T12:59:38;20.80;99.90
5675;DHT22;2860;54.284;10.158;2023-05-01T13:02:06;20.80;99.90
5675;DHT22;2860;54.284;10.158;2023-05-01T13:04:32;20.80;99.90
5675;DHT22;2860;54.284;10.158;2023-05-01T13:06:58;20.70;99.90
5675;DHT22;2860;54.284;10.158;2023-05-01T13:09:25;20.60;99.90
5675;DHT22;2860;54.284;10.158;2023-05-01T13:12:00;20.70;99.90
5675;DHT22;2860;54.284;10.158;2023-05-01T13:14:37;20.70;99.90
5675;DHT22;2860;54.284;10.158;2023-05-01T13:17:07;20.50;99.90
5675;DHT22;2860;54.284;10.158;2023-05-01T13:19:33;20.60;99.90
5675;DHT22;2860;54.284;10.158;2023-05-01T13:21:58;20.80;99.90
5675;DHT22;2860;54.284;10.158;2023-05-01T13:24:38;20.90;99.90
5675;DHT22;2860;54.284;10.158;2023-05-01T13:27:04;21.10;99.90
5675;DHT22;2860;54.284;10.158;2023-05-01T13:29:31;21.30;99.90
5675;DHT22;2860;54.284;10.158;2023-05-01T13:31:56;21.50;99.90
5675;DHT22;2860;54.284;10.158;2023-05-01T13:34:29;21.80;99.90
5675;DHT22;2860;54.284;10.158;2023-05-01T13:36:55;21.70;99.90
5675;DHT22;2860;54.284;10.158;2023-05-01T13:39:21;21.90;99.90
5675;DHT22;2860;54.284;10.158;2023-05-01T13:41:48;22.00;99.90
5675;DHT22;2860;54.284;10.158;2023-05-01T13:44:15;21.60;99.90
5675;DHT22;2860;54.284;10.158;2023-05-01T13:46:41;21.30;99.90
5675;DHT22;2860;54.284;10.158;2023-05-01T13:49:07;21.00;99.90
5675;DHT22;2860;54.284;10.158;2023-05-01T13:51:33;20.80;99.90
5675;DHT22;2860;54.284;10.158;2023-05-01T13:54:02;20.60;99.90
5675;DHT22;2860;54.284;10.158;2023-05-01T13:56:28;20.60;99.90
5675;DHT22;2860;54.284;10.158;2023-05-01T13:58:54;20.40;99.90
5675;DHT22;2860;54.284;10.158;2023-05-01T14:01:20;20.40;99.90
5675;DHT22;2860;54.284;10.158;2023-05-01T14:03:47;20.50;99.90
5675;DHT22;2860;54.284;10.158;2023-05-01T14:06:15;20.40;99.90
5675;DHT22;2860;54.284;10.158;2023-05-01T14:08:41;20.60;99.90
5675;DHT22;2860;54.284;10.158;2023-05-01T14:11:08;20.70;99.90
5675;DHT22;2860;54.284;10.158;2023-05-01T14:13:39;20.90;99.90
5675;DHT22;2860;54.284;10.158;2023-05-01T14:16:18;20.60;99.90
5675;DHT22;2860;54.284;10.158;2023-05-01T14:18:46;20.50;99.90
5675;DHT22;2860;54.284;10.158;2023-05-01T14:21:14;20.50;99.90
5675;DHT22;2860;54.284;10.158;2023-05-01T14:23:40;20.70;99.90
5675;DHT22;2860;54.284;10.158;2023-05-01T14:26:09;20.80;99.90
5675;DHT22;2860;54.284;10.158;2023-05-01T14:28:40;20.60;99.90
5675;DHT22;2860;54.284;10.158;2023-05-01T14:31:07;20.50;99.90
5675;DHT22;2860;54.284;10.158;2023-05-01T14:33:33;20.40;99.90
5675;DHT22;2860;54.284;10.158;2023-05-01T14:36:04;20.50;99.90
5675;DHT22;2860;54.284;10.158;2023-05-01T14:38:29;20.70;99.90
5675;DHT22;2860;54.284;10.158;2023-05-01T14:41:02;20.90;99.90
5675;DHT22;2860;54.284;10.158;2023-05-01T14:43:28;21.10;99.90
5675;DHT22;2860;54.284;10.158;2023-05-01T14:45:54;21.40;99.90
5675;DHT22;2860;54.284;10.158;2023-05-01T14:48:24;21.60;99.90
5675;DHT22;2860;54.284;10.158;2023-05-01T14:50:51;21.60;99.90
5675;DHT22;2860;54.284;10.158;2023-05-01T14:53:17;21.40;99.90
5675;DHT22;2860;54.284;10.158;2023-05-01T14:55:43;21.40;99.90
5675;DHT22;2860;54.284;10.158;2023-05-01T14:58:08;21.50;99.90
5675;DHT22;2860;54.284;10.158;2023-05-01T15:00:34;21.40;99.90
5675;DHT22;2860;54.284;10.158;2023-05-01T15:03:00;21.30;99.90
5675;DHT22;2860;54.284;10.158;2023-05-01T15:05:25;20.90;99.90
5675;DHT22;2860;54.284;10.158;2023-05-01T15:07:55;20.50;99.90
5675;DHT22;2860;54.284;10.158;2023-05-01T15:10:21;20.00;99.90
5675;DHT22;2860;54.284;10.158;2023-05-01T15:12:48;19.60;99.90
5675;DHT22;2860;54.284;10.158;2023-05-01T15:15:14;19.20;99.90
5675;DHT22;2860;54.284;10.158;2023-05-01T15:17:39;19.10;99.90
5675;DHT22;2860;54.284;10.158;2023-05-01T15:20:05;19.10;99.90
5675;DHT22;2860;54.284;10.158;2023-05-01T15:22:31;19.00;99.90
5675;DHT22;2860;54.284;10.158;2023-05-01T15:24:57;19.00;99.90
5675;DHT22;2860;54.284;10.158;2023-05-01T15:27:22;19.10;99.90
5675;DHT22;2860;54.284;10.158;2023-05-01T15:29:48;19.20;99.90
5675;DHT22;2860;54.284;10.158;2023-05-01T15:32:13;19.20;99.90
5675;DHT22;2860;54.284;10.158;2023-05-01T15:34:39;19.20;99.90
5675;DHT22;2860;54.284;10.158;2023-05-01T15:37:06;19.20;99.90
5675;DHT22;2860;54.284;10.158;2023-05-01T15:39:31;19.20;99.90
5675;DHT22;2860;54.284;10.158;2023-05-01T15:41:57;19.10;99.90
5675;DHT22;2860;54.284;10.158;2023-05-01T15:44:23;18.90;99.90
5675;DHT22;2860;54.284;10.158;2023-05-01T15:46:50;18.80;99.90
5675;DHT22;2860;54.284;10.158;2023-05-01T15:49:17;18.60;99.90
5675;DHT22;2860;54.284;10.158;2023-05-01T15:51:42;18.50;99.90
5675;DHT22;2860;54.284;10.158;2023-05-01T15:54:08;18.50;99.90
5675;DHT22;2860;54.284;10.158;2023-05-01T15:56:35;18.50;99.90
5675;DHT22;2860;54.284;10.158;2023-05-01T15:59:02;18.60;99.90
5675;DHT22;2860;54.284;10.158;2023-05-01T16:01:29;18.60;99.90
5675;DHT22;2860;54.284;10.158;2023-05-01T16:03:54;18.70;99.90
5675;DHT22;2860;54.284;10.158;2023-05-01T16:06:20;18.50;99.90
5675;DHT22;2860;54.284;10.158;2023-05-01T16:08:45;18.40;99.90
5675;DHT22;2860;54.284;10.158;2023-05-01T16:11:11;18.50;99.90
5675;DHT22;2860;54.284;10.158;2023-05-01T16:13:38;18.60;99.90
5675;DHT22;2860;54.284;10.158;2023-05-01T16:16:07;18.60;99.90
5675;DHT22;2860;54.284;10.158;2023-05-01T16:18:33;18.60;99.90